createdAt,value
2016-11-26T00:00:03.156Z,932.64
2016-11-26T00:01:16.775Z,932.67
2016-11-26T00:02:29.942Z,932.67
2016-11-26T00:03:43.485Z,932.65
2016-11-26T00:04:57.103Z,932.71
2016-11-26T00:06:10.672Z,932.72
2016-11-26T00:07:25.832Z,932.75
2016-11-26T00:08:39.476Z,932.68
2016-11-26T00:09:52.509Z,932.67
2016-11-26T00:11:06.110Z,932.67
2016-11-26T00:12:18.899Z,932.69
2016-11-26T00:13:32.443Z,932.66
2016-11-26T00:14:45.460Z,932.69
2016-11-26T00:15:58.992Z,932.61
2016-11-26T00:17:12.564Z,932.64
2016-11-26T00:18:25.683Z,932.61
2016-11-26T00:19:39.321Z,932.62
2016-11-26T00:20:52.366Z,932.61
2016-11-26T00:22:05.541Z,932.67
2016-11-26T00:23:49.703Z,932.74
2016-11-26T00:25:02.985Z,932.72
2016-11-26T00:26:16.587Z,932.73
2016-11-26T00:27:29.046Z,932.75
2016-11-26T00:28:42.578Z,932.76
2016-11-26T00:29:55.611Z,932.82
2016-11-26T00:31:09.217Z,932.81
2016-11-26T00:32:22.266Z,932.86
2016-11-26T00:33:35.484Z,932.91
2016-11-26T00:34:48.551Z,932.87
2016-11-26T00:36:01.696Z,932.92
2016-11-26T00:37:15.242Z,932.96
2016-11-26T00:38:28.336Z,932.97
2016-11-26T00:39:42.015Z,932.94
2016-11-26T00:40:55.040Z,932.92
2016-11-26T00:42:08.687Z,932.88
2016-11-26T00:43:21.773Z,932.85
2016-11-26T00:44:35.355Z,932.8
2016-11-26T00:45:48.446Z,932.8
2016-11-26T00:47:02.045Z,932.73
2016-11-26T00:48:15.613Z,932.72
2016-11-26T00:50:56.168Z,932.68
2016-11-26T00:52:09.286Z,932.68
2016-11-26T00:53:22.121Z,932.63
2016-11-26T00:54:35.222Z,932.63
2016-11-26T00:55:48.805Z,932.62
2016-11-26T00:57:01.952Z,932.64
2016-11-26T00:58:15.554Z,932.64
2016-11-26T00:59:28.738Z,932.64
2016-11-26T01:00:41.804Z,932.6
2016-11-26T01:01:54.825Z,932.63
2016-11-26T01:03:08.415Z,932.64
2016-11-26T01:04:22.016Z,932.67
2016-11-26T01:05:35.091Z,932.66
2016-11-26T01:06:48.543Z,932.62
2016-11-26T01:08:01.885Z,932.61
2016-11-26T01:09:15.032Z,932.62
2016-11-26T01:10:28.716Z,932.54
2016-11-26T01:11:42.296Z,932.51
2016-11-26T01:12:55.408Z,932.54
2016-11-26T01:14:09.090Z,932.56
2016-11-26T01:15:22.394Z,932.59
2016-11-26T01:16:35.960Z,932.61
2016-11-26T01:17:49.535Z,932.61
2016-11-26T01:19:03.109Z,932.59
2016-11-26T01:20:16.680Z,932.61
2016-11-26T01:21:29.471Z,932.6
2016-11-26T01:22:43.091Z,932.58
2016-11-26T01:23:56.672Z,932.59
2016-11-26T01:25:10.329Z,932.6
2016-11-26T01:26:23.331Z,932.58
2016-11-26T01:27:36.362Z,932.61
2016-11-26T01:28:50.007Z,932.64
2016-11-26T01:30:03.628Z,932.67
2016-11-26T01:31:17.201Z,932.66
2016-11-26T01:32:30.222Z,932.62
2016-11-26T01:33:43.278Z,932.66
2016-11-26T01:34:56.858Z,932.65
2016-11-26T01:36:10.508Z,932.65
2016-11-26T01:37:24.087Z,932.66
2016-11-26T01:38:36.609Z,932.66
2016-11-26T01:39:50.147Z,932.64
2016-11-26T01:41:03.697Z,932.64
2016-11-26T01:42:17.251Z,932.59
2016-11-26T01:43:29.967Z,932.57
2016-11-26T01:44:43.490Z,932.54
2016-11-26T01:45:56.548Z,932.56
2016-11-26T01:47:10.109Z,932.59
2016-11-26T01:48:23.672Z,932.58
2016-11-26T01:49:36.706Z,932.55
2016-11-26T01:50:50.291Z,932.58
2016-11-26T01:52:03.821Z,932.61
2016-11-26T01:53:17.390Z,932.63
2016-11-26T01:54:30.957Z,932.68
2016-11-26T01:55:44.533Z,932.71
2016-11-26T01:56:57.610Z,932.69
2016-11-26T01:58:11.128Z,932.65
2016-11-26T01:59:24.697Z,932.66
2016-11-26T02:00:38.290Z,932.58
2016-11-26T02:01:51.823Z,932.63
2016-11-26T02:03:04.850Z,932.59
2016-11-26T02:04:18.409Z,932.6
2016-11-26T02:06:03.109Z,932.59
2016-11-26T02:07:16.693Z,932.6
2016-11-26T02:08:30.329Z,932.57
2016-11-26T02:09:43.903Z,932.58
2016-11-26T02:10:57.209Z,932.53
2016-11-26T02:12:10.762Z,932.5
2016-11-26T02:13:54.935Z,932.46
2016-11-26T02:15:08.468Z,932.42
2016-11-26T02:16:22.077Z,932.41
2016-11-26T02:17:35.401Z,932.38
2016-11-26T02:18:48.985Z,932.39
2016-11-26T02:20:02.545Z,932.38
2016-11-26T02:21:16.070Z,932.37
2016-11-26T02:22:29.059Z,932.39
2016-11-26T02:23:42.143Z,932.34
2016-11-26T02:24:55.683Z,932.32
2016-11-26T02:26:08.733Z,932.32
2016-11-26T02:27:22.344Z,932.29
2016-11-26T02:28:36.086Z,932.25
2016-11-26T02:29:49.168Z,932.22
2016-11-26T02:31:02.927Z,932.21
2016-11-26T02:32:16.516Z,932.2
2016-11-26T02:33:28.998Z,932.22
2016-11-26T02:34:42.626Z,932.18
2016-11-26T02:35:55.704Z,932.2
2016-11-26T02:37:09.312Z,932.2
2016-11-26T02:38:22.422Z,932.24
2016-11-26T02:39:36.067Z,932.22
2016-11-26T02:40:49.687Z,932.24
2016-11-26T02:42:02.991Z,932.25
2016-11-26T02:43:16.002Z,932.29
2016-11-26T02:44:29.601Z,932.25
2016-11-26T02:45:43.161Z,932.26
2016-11-26T02:46:56.814Z,932.26
2016-11-26T02:48:09.891Z,932.25
2016-11-26T02:49:23.481Z,932.2
2016-11-26T02:50:36.578Z,932.21
2016-11-26T02:51:49.728Z,932.18
2016-11-26T02:53:03.298Z,932.2
2016-11-26T02:54:16.900Z,932.21
2016-11-26T02:55:30.504Z,932.23
2016-11-26T02:56:44.135Z,932.27
2016-11-26T02:57:57.232Z,932.21
2016-11-26T02:59:10.320Z,932.2
2016-11-26T03:00:23.463Z,932.18
2016-11-26T03:01:36.015Z,932.12
2016-11-26T03:02:49.036Z,932.06
2016-11-26T03:04:02.303Z,932.06
2016-11-26T03:07:00.102Z,932.04
2016-11-26T03:08:13.683Z,932.05
2016-11-26T03:09:26.762Z,932.03
2016-11-26T03:10:39.869Z,932.01
2016-11-26T03:11:53.400Z,931.99
2016-11-26T03:13:06.997Z,931.91
2016-11-26T03:14:20.282Z,931.92
2016-11-26T03:15:33.902Z,931.91
2016-11-26T03:16:47.465Z,931.91
2016-11-26T03:18:01.063Z,931.92
2016-11-26T03:19:14.707Z,931.94
2016-11-26T03:20:28.341Z,931.92
2016-11-26T03:21:41.950Z,931.93
2016-11-26T03:22:55.550Z,931.92
2016-11-26T03:24:09.199Z,931.91
2016-11-26T03:25:22.798Z,931.85
2016-11-26T03:26:35.925Z,931.83
2016-11-26T03:27:49.563Z,931.77
2016-11-26T03:29:03.129Z,931.75
2016-11-26T03:30:15.872Z,931.71
2016-11-26T03:31:29.461Z,931.7
2016-11-26T03:32:42.846Z,931.69
2016-11-26T03:33:56.516Z,931.7
2016-11-26T03:35:09.573Z,931.65
2016-11-26T03:36:22.583Z,931.63
2016-11-26T03:38:07.278Z,931.65
2016-11-26T03:39:20.364Z,931.63
2016-11-26T03:40:33.991Z,931.66
2016-11-26T03:41:47.559Z,931.64
2016-11-26T03:43:01.085Z,931.67
2016-11-26T03:44:45.768Z,931.68
2016-11-26T03:45:59.376Z,931.68
2016-11-26T03:47:12.427Z,931.69
2016-11-26T03:48:26.027Z,931.65
2016-11-26T03:49:39.614Z,931.61
2016-11-26T03:50:53.294Z,931.6
2016-11-26T03:52:06.892Z,931.59
2016-11-26T03:53:20.512Z,931.58
2016-11-26T03:54:33.995Z,931.59
2016-11-26T03:55:47.564Z,931.58
2016-11-26T03:57:00.583Z,931.62
2016-11-26T03:58:13.651Z,931.66
2016-11-26T03:59:26.761Z,931.65
2016-11-26T04:01:11.481Z,931.68
2016-11-26T04:02:24.565Z,931.64
2016-11-26T04:03:37.123Z,931.58
2016-11-26T04:04:50.416Z,931.58
2016-11-26T04:06:03.471Z,931.57
2016-11-26T04:07:17.064Z,931.58
2016-11-26T04:08:30.074Z,931.58
2016-11-26T04:09:43.614Z,931.57
2016-11-26T04:11:28.409Z,931.6
2016-11-26T04:12:42.119Z,931.62
2016-11-26T04:13:55.769Z,931.64
2016-11-26T04:15:08.328Z,931.66
2016-11-26T04:16:21.856Z,931.7
2016-11-26T04:17:35.435Z,931.67
2016-11-26T04:18:49.024Z,931.66
2016-11-26T04:20:33.735Z,931.6
2016-11-26T04:21:47.365Z,931.58
2016-11-26T04:23:00.996Z,931.56
2016-11-26T04:24:14.040Z,931.52
2016-11-26T04:25:27.541Z,931.53
2016-11-26T04:26:40.588Z,931.53
2016-11-26T04:27:53.853Z,931.5
2016-11-26T04:29:07.471Z,931.48
2016-11-26T04:30:21.022Z,931.44
2016-11-26T04:31:34.663Z,931.42
2016-11-26T04:32:47.218Z,931.41
2016-11-26T04:34:00.229Z,931.38
2016-11-26T04:35:13.810Z,931.34
2016-11-26T04:36:27.455Z,931.36
2016-11-26T04:37:41.079Z,931.34
2016-11-26T04:38:54.710Z,931.33
2016-11-26T04:40:08.314Z,931.31
2016-11-26T04:41:21.895Z,931.33
2016-11-26T04:42:35.566Z,931.36
2016-11-26T04:43:48.626Z,931.34
2016-11-26T04:45:01.924Z,931.35
2016-11-26T04:46:14.965Z,931.26
2016-11-26T04:47:28.036Z,931.29
2016-11-26T04:48:41.684Z,931.26
2016-11-26T04:49:55.317Z,931.27
2016-11-26T04:51:08.356Z,931.28
2016-11-26T04:52:22.009Z,931.21
2016-11-26T04:53:35.694Z,931.19
2016-11-26T04:54:48.748Z,931.15
2016-11-26T04:56:02.361Z,931.04
2016-11-26T04:57:15.944Z,931.02
2016-11-26T04:58:29.063Z,931.01
2016-11-26T04:59:42.650Z,930.98
2016-11-26T05:00:56.231Z,930.99
2016-11-26T05:02:09.388Z,931.01
2016-11-26T05:03:22.959Z,930.98
2016-11-26T05:04:36.556Z,930.98
2016-11-26T05:05:49.873Z,930.95
2016-11-26T05:07:03.472Z,930.89
2016-11-26T05:08:17.019Z,930.89
2016-11-26T05:09:30.596Z,930.88
2016-11-26T05:10:44.279Z,930.85
2016-11-26T05:11:57.851Z,930.84
2016-11-26T05:13:11.463Z,930.84
2016-11-26T05:14:24.464Z,930.82
2016-11-26T05:15:38.230Z,930.81
2016-11-26T05:16:51.807Z,930.81
2016-11-26T05:18:04.937Z,930.81
2016-11-26T05:19:18.538Z,930.84
2016-11-26T05:20:32.209Z,930.82
2016-11-26T05:21:45.276Z,930.82
2016-11-26T05:22:57.267Z,930.8
2016-11-26T05:24:10.558Z,930.77
2016-11-26T05:25:23.672Z,930.77
2016-11-26T05:26:37.294Z,930.8
2016-11-26T05:27:50.410Z,930.8
2016-11-26T05:29:04.021Z,930.79
2016-11-26T05:30:17.096Z,930.74
2016-11-26T05:31:30.731Z,930.72
2016-11-26T05:32:44.400Z,930.69
2016-11-26T05:33:58.026Z,930.63
2016-11-26T05:35:11.602Z,930.56
2016-11-26T05:36:25.229Z,930.56
2016-11-26T05:37:38.773Z,930.53
2016-11-26T05:38:52.322Z,930.51
2016-11-26T05:40:06.165Z,930.54
2016-11-26T05:41:19.785Z,930.57
2016-11-26T05:42:33.403Z,930.56
2016-11-26T05:43:47.033Z,930.59
2016-11-26T05:45:00.638Z,930.58
2016-11-26T05:46:14.241Z,930.61
2016-11-26T05:47:27.817Z,930.55
2016-11-26T05:48:41.396Z,930.53
2016-11-26T05:49:55.015Z,930.54
2016-11-26T05:51:08.627Z,930.51
2016-11-26T05:52:22.194Z,930.5
2016-11-26T05:53:35.264Z,930.49
2016-11-26T05:54:48.846Z,930.48
2016-11-26T05:56:02.456Z,930.44
2016-11-26T05:57:14.528Z,930.45
2016-11-26T05:58:27.871Z,930.41
2016-11-26T05:59:41.024Z,930.41
2016-11-26T06:00:54.621Z,930.41
2016-11-26T06:02:07.707Z,930.39
2016-11-26T06:03:21.290Z,930.37
2016-11-26T06:04:34.823Z,930.36
2016-11-26T06:05:48.479Z,930.32
2016-11-26T06:07:02.158Z,930.33
2016-11-26T06:08:15.754Z,930.31
2016-11-26T06:09:29.378Z,930.31
2016-11-26T06:10:42.997Z,930.34
2016-11-26T06:11:56.548Z,930.3
2016-11-26T06:13:10.125Z,930.31
2016-11-26T06:14:23.180Z,930.28
2016-11-26T06:15:36.875Z,930.28
2016-11-26T06:16:50.170Z,930.31
2016-11-26T06:18:03.712Z,930.34
2016-11-26T06:19:16.781Z,930.35
2016-11-26T06:20:30.003Z,930.39
2016-11-26T06:21:43.098Z,930.38
2016-11-26T06:22:56.171Z,930.39
2016-11-26T06:24:09.756Z,930.34
2016-11-26T06:25:23.376Z,930.36
2016-11-26T06:26:36.944Z,930.33
2016-11-26T06:27:50.508Z,930.37
2016-11-26T06:29:04.115Z,930.38
2016-11-26T06:30:17.214Z,930.42
2016-11-26T06:31:30.803Z,930.37
2016-11-26T06:32:44.412Z,930.38
2016-11-26T06:33:58.055Z,930.37
2016-11-26T06:35:11.696Z,930.4
2016-11-26T06:36:55.904Z,930.36
2016-11-26T06:38:09.585Z,930.33
2016-11-26T06:39:23.203Z,930.27
2016-11-26T06:40:36.804Z,930.23
2016-11-26T06:41:49.293Z,930.22
2016-11-26T06:43:02.043Z,930.19
2016-11-26T06:44:15.616Z,930.23
2016-11-26T06:45:29.253Z,930.26
2016-11-26T06:46:41.815Z,930.23
2016-11-26T06:47:55.459Z,930.26
2016-11-26T06:49:09.150Z,930.27
2016-11-26T06:50:22.794Z,930.22
2016-11-26T06:51:36.440Z,930.26
2016-11-26T06:52:49.465Z,930.25
2016-11-26T06:54:03.116Z,930.23
2016-11-26T06:55:16.782Z,930.24
2016-11-26T06:56:30.297Z,930.24
2016-11-26T06:57:43.111Z,930.18
2016-11-26T06:58:56.703Z,930.21
2016-11-26T07:00:10.373Z,930.18
2016-11-26T07:01:24.034Z,930.2
2016-11-26T07:02:37.062Z,930.2
2016-11-26T07:03:50.178Z,930.19
2016-11-26T07:05:03.309Z,930.22
2016-11-26T07:06:16.408Z,930.2
2016-11-26T07:07:30.047Z,930.21
2016-11-26T07:08:43.688Z,930.24
2016-11-26T07:09:57.294Z,930.26
2016-11-26T07:11:10.381Z,930.27
2016-11-26T07:12:21.840Z,930.26
2016-11-26T07:13:35.435Z,930.23
2016-11-26T07:14:49.034Z,930.19
2016-11-26T07:16:02.623Z,930.15
2016-11-26T07:17:15.755Z,930.13
2016-11-26T07:18:28.843Z,930.19
2016-11-26T07:19:41.904Z,930.14
2016-11-26T07:20:55.068Z,930.14
2016-11-26T07:22:08.324Z,930.16
2016-11-26T07:23:21.932Z,930.18
2016-11-26T07:24:35.542Z,930.22
2016-11-26T07:25:49.177Z,930.23
2016-11-26T07:27:02.722Z,930.26
2016-11-26T07:28:16.306Z,930.32
2016-11-26T07:29:29.992Z,930.35
2016-11-26T07:30:43.580Z,930.35
2016-11-26T07:31:57.146Z,930.34
2016-11-26T07:33:10.808Z,930.35
2016-11-26T07:34:24.477Z,930.4
2016-11-26T07:35:37.529Z,930.46
2016-11-26T07:36:51.348Z,930.48
2016-11-26T07:38:04.476Z,930.51
2016-11-26T07:39:18.002Z,930.54
2016-11-26T07:40:31.645Z,930.57
2016-11-26T07:41:44.703Z,930.54
2016-11-26T07:42:58.073Z,930.57
2016-11-26T07:44:11.669Z,930.57
2016-11-26T07:45:25.243Z,930.6
2016-11-26T07:46:38.836Z,930.63
2016-11-26T07:47:51.828Z,930.56
2016-11-26T07:49:05.399Z,930.54
2016-11-26T07:50:18.714Z,930.5
2016-11-26T07:51:31.838Z,930.51
2016-11-26T07:52:44.876Z,930.53
2016-11-26T07:53:58.495Z,930.55
2016-11-26T07:55:11.594Z,930.56
2016-11-26T07:56:25.173Z,930.6
2016-11-26T07:57:38.796Z,930.62
2016-11-26T07:58:52.375Z,930.62
2016-11-26T08:00:05.452Z,930.66
2016-11-26T08:01:18.538Z,930.67
2016-11-26T08:02:32.162Z,930.67
2016-11-26T08:03:45.346Z,930.65
2016-11-26T08:04:58.889Z,930.65
2016-11-26T08:06:11.995Z,930.69
2016-11-26T08:07:25.666Z,930.66
2016-11-26T08:08:39.315Z,930.67
2016-11-26T08:09:52.360Z,930.66
2016-11-26T08:11:06.113Z,930.68
2016-11-26T08:12:19.721Z,930.69
2016-11-26T08:13:33.314Z,930.72
2016-11-26T08:14:46.427Z,930.73
2016-11-26T08:16:00.014Z,930.78
2016-11-26T08:17:14.328Z,930.77
2016-11-26T08:18:28.042Z,930.79
2016-11-26T08:19:41.650Z,930.85
2016-11-26T08:20:54.193Z,930.88
2016-11-26T08:22:07.804Z,930.92
2016-11-26T08:23:20.940Z,930.93
2016-11-26T08:24:34.238Z,930.92
2016-11-26T08:25:47.876Z,930.91
2016-11-26T08:27:01.476Z,930.96
2016-11-26T08:28:14.828Z,930.94
2016-11-26T08:29:28.520Z,930.97
2016-11-26T08:30:42.147Z,930.99
2016-11-26T08:31:55.257Z,930.98
2016-11-26T08:33:08.828Z,930.97
2016-11-26T08:34:21.916Z,930.98
2016-11-26T08:35:35.525Z,931.02
2016-11-26T08:36:49.094Z,931.05
2016-11-26T08:38:02.210Z,931.04
2016-11-26T08:39:15.322Z,931.04
2016-11-26T08:40:28.313Z,931.04
2016-11-26T08:41:41.939Z,931.06
2016-11-26T08:42:55.570Z,931.06
2016-11-26T08:44:08.866Z,931.04
2016-11-26T08:45:22.445Z,931.07
2016-11-26T08:46:36.204Z,931.07
2016-11-26T08:47:47.686Z,931.08
2016-11-26T08:49:00.737Z,931.08
2016-11-26T08:50:14.331Z,931.1
2016-11-26T08:51:27.376Z,931.11
2016-11-26T08:52:40.932Z,931.11
2016-11-26T08:53:54.500Z,931.1
2016-11-26T08:55:08.097Z,931.1
2016-11-26T08:56:21.705Z,931.08
2016-11-26T08:57:35.325Z,931.09
2016-11-26T08:58:48.906Z,931.06
2016-11-26T09:00:01.953Z,931.07
2016-11-26T09:01:15.572Z,931.07
2016-11-26T09:02:28.663Z,931.07
2016-11-26T09:03:41.189Z,931.09
2016-11-26T09:04:54.761Z,931.06
2016-11-26T09:06:07.859Z,931.09
2016-11-26T09:07:20.971Z,931.1
2016-11-26T09:08:34.298Z,931.12
2016-11-26T09:09:47.915Z,931.15
2016-11-26T09:11:01.488Z,931.17
2016-11-26T09:12:14.439Z,931.18
2016-11-26T09:13:27.792Z,931.16
2016-11-26T09:14:41.436Z,931.17
2016-11-26T09:15:53.958Z,931.18
2016-11-26T09:17:07.521Z,931.2
2016-11-26T09:18:20.590Z,931.24
2016-11-26T09:19:34.263Z,931.24
2016-11-26T09:20:47.847Z,931.27
2016-11-26T09:22:01.382Z,931.27
2016-11-26T09:23:15.007Z,931.27
2016-11-26T09:24:28.690Z,931.29
2016-11-26T09:25:41.800Z,931.31
2016-11-26T09:26:55.406Z,931.32
2016-11-26T09:28:08.935Z,931.35
2016-11-26T09:29:22.551Z,931.35
2016-11-26T09:30:35.797Z,931.4
2016-11-26T09:31:49.413Z,931.37
2016-11-26T09:33:02.628Z,931.37
2016-11-26T09:34:16.198Z,931.38
2016-11-26T09:35:29.772Z,931.37
2016-11-26T09:36:43.359Z,931.3
2016-11-26T09:37:56.743Z,931.34
2016-11-26T09:39:10.312Z,931.33
2016-11-26T09:40:23.949Z,931.38
2016-11-26T09:41:37.565Z,931.43
2016-11-26T09:42:50.628Z,931.44
2016-11-26T09:44:03.502Z,931.46
2016-11-26T09:45:16.606Z,931.45
2016-11-26T09:46:30.086Z,931.44
2016-11-26T09:47:43.641Z,931.46
2016-11-26T09:48:57.192Z,931.51
2016-11-26T09:50:10.854Z,931.55
2016-11-26T09:51:24.547Z,931.58
2016-11-26T09:52:37.691Z,931.57
2016-11-26T09:53:50.746Z,931.6
2016-11-26T09:55:03.815Z,931.61
2016-11-26T09:56:16.334Z,931.64
2016-11-26T09:57:29.873Z,931.68
2016-11-26T09:58:43.493Z,931.68
2016-11-26T09:59:56.040Z,931.72
2016-11-26T10:01:09.287Z,931.74
2016-11-26T10:02:22.394Z,931.79
2016-11-26T10:03:34.887Z,931.81
2016-11-26T10:04:48.556Z,931.84
2016-11-26T10:06:02.214Z,931.83
2016-11-26T10:07:15.833Z,931.86
2016-11-26T10:09:00.578Z,931.87
2016-11-26T10:10:14.180Z,931.86
2016-11-26T10:11:26.714Z,931.88
2016-11-26T10:12:39.789Z,931.91
2016-11-26T10:13:53.349Z,931.95
2016-11-26T10:15:06.969Z,932
2016-11-26T10:16:20.598Z,932
2016-11-26T10:17:34.223Z,932
2016-11-26T10:18:47.841Z,931.99
2016-11-26T10:20:01.415Z,931.99
2016-11-26T10:21:14.980Z,931.95
2016-11-26T10:22:28.686Z,931.95
2016-11-26T10:23:42.364Z,931.91
2016-11-26T10:24:55.692Z,931.85
2016-11-26T10:26:09.478Z,931.87
2016-11-26T10:27:22.590Z,931.88
2016-11-26T10:28:36.393Z,931.88
2016-11-26T10:29:50.015Z,931.9
2016-11-26T10:31:03.639Z,931.95
2016-11-26T10:32:16.635Z,931.93
2016-11-26T10:33:30.200Z,931.93
2016-11-26T10:34:43.872Z,931.94
2016-11-26T10:35:57.015Z,931.99
2016-11-26T10:37:10.007Z,931.97
2016-11-26T10:38:23.733Z,932
2016-11-26T10:39:37.332Z,932.01
2016-11-26T10:40:50.888Z,932.03
2016-11-26T10:42:04.474Z,932.01
2016-11-26T10:43:17.608Z,932.01
2016-11-26T10:44:30.963Z,932.01
2016-11-26T10:45:43.498Z,932.02
2016-11-26T10:46:57.097Z,932
2016-11-26T10:48:10.777Z,931.99
2016-11-26T10:49:23.880Z,931.99
2016-11-26T10:50:37.510Z,931.95
2016-11-26T10:51:50.599Z,931.96
2016-11-26T10:53:04.114Z,931.95
2016-11-26T10:54:17.755Z,931.95
2016-11-26T10:56:02.032Z,931.95
2016-11-26T10:57:15.631Z,931.98
2016-11-26T10:58:29.192Z,931.94
2016-11-26T10:59:42.751Z,931.97
2016-11-26T11:00:56.329Z,931.97
2016-11-26T11:02:09.948Z,931.97
2016-11-26T11:03:23.058Z,931.97
2016-11-26T11:04:36.721Z,931.99
2016-11-26T11:05:49.751Z,931.96
2016-11-26T11:07:03.393Z,931.93
2016-11-26T11:08:16.515Z,931.93
2016-11-26T11:09:29.058Z,931.97
2016-11-26T11:10:42.604Z,932
2016-11-26T11:11:56.193Z,932.04
2016-11-26T11:13:09.884Z,932.05
2016-11-26T11:14:23.501Z,932.03
2016-11-26T11:15:37.086Z,932.05
2016-11-26T11:16:50.724Z,932.04
2016-11-26T11:18:03.753Z,932.08
2016-11-26T11:19:17.382Z,932.09
2016-11-26T11:20:30.999Z,932.06
2016-11-26T11:21:44.589Z,932.1
2016-11-26T11:22:58.232Z,932.15
2016-11-26T11:24:11.791Z,932.18
2016-11-26T11:25:24.900Z,932.17
2016-11-26T11:26:38.535Z,932.17
2016-11-26T11:27:52.158Z,932.14
2016-11-26T11:29:05.153Z,932.15
2016-11-26T11:30:18.710Z,932.2
2016-11-26T11:31:32.327Z,932.19
2016-11-26T11:32:45.928Z,932.22
2016-11-26T11:33:59.538Z,932.24
2016-11-26T11:35:12.605Z,932.24
2016-11-26T11:36:57.252Z,932.26
2016-11-26T11:38:10.889Z,932.27
2016-11-26T11:39:24.563Z,932.24
2016-11-26T11:40:37.685Z,932.25
2016-11-26T11:41:50.518Z,932.24
2016-11-26T11:43:04.177Z,932.2
2016-11-26T11:44:17.821Z,932.25
2016-11-26T11:45:31.446Z,932.23
2016-11-26T11:46:45.057Z,932.24
2016-11-26T11:47:57.525Z,932.28
2016-11-26T11:49:11.063Z,932.3
2016-11-26T11:50:24.154Z,932.32
2016-11-26T11:51:37.775Z,932.31
2016-11-26T11:52:51.336Z,932.32
2016-11-26T11:54:04.399Z,932.31
2016-11-26T11:55:18.011Z,932.33
2016-11-26T11:56:31.050Z,932.3
2016-11-26T11:57:44.720Z,932.33
2016-11-26T11:58:58.318Z,932.28
2016-11-26T12:00:11.926Z,932.33
2016-11-26T12:01:25.497Z,932.31
2016-11-26T12:02:39.177Z,932.28
2016-11-26T12:03:52.499Z,932.3
2016-11-26T12:05:06.310Z,932.3
2016-11-26T12:06:19.365Z,932.31
2016-11-26T12:07:33.167Z,932.34
2016-11-26T12:08:46.738Z,932.31
2016-11-26T12:10:00.332Z,932.31
2016-11-26T12:11:13.431Z,932.28
2016-11-26T12:12:27.047Z,932.29
2016-11-26T12:13:40.066Z,932.29
2016-11-26T12:14:52.595Z,932.27
2016-11-26T12:16:06.448Z,932.26
2016-11-26T12:17:19.758Z,932.28
2016-11-26T12:18:32.897Z,932.27
2016-11-26T12:20:17.611Z,932.28
2016-11-26T12:21:31.199Z,932.29
2016-11-26T12:24:29.447Z,932.27
2016-11-26T12:25:43.092Z,932.32
2016-11-26T12:26:56.702Z,932.29
2016-11-26T12:28:09.723Z,932.3
2016-11-26T12:29:23.283Z,932.3
2016-11-26T12:30:36.814Z,932.3
2016-11-26T12:31:50.388Z,932.29
2016-11-26T12:33:04.034Z,932.28
2016-11-26T12:34:17.733Z,932.28
2016-11-26T12:35:31.344Z,932.29
2016-11-26T12:36:44.135Z,932.25
2016-11-26T12:37:57.691Z,932.26
2016-11-26T12:39:11.277Z,932.26
2016-11-26T12:40:24.937Z,932.26
2016-11-26T12:41:38.606Z,932.25
2016-11-26T12:42:52.263Z,932.24
2016-11-26T12:44:05.867Z,932.25
2016-11-26T12:45:18.974Z,932.27
2016-11-26T12:46:32.138Z,932.26
2016-11-26T12:47:45.769Z,932.23
2016-11-26T12:48:59.526Z,932.23
2016-11-26T12:50:12.621Z,932.19
2016-11-26T12:51:25.170Z,932.18
2016-11-26T12:52:38.804Z,932.19
2016-11-26T12:53:51.053Z,932.2
2016-11-26T12:55:03.604Z,932.23
2016-11-26T12:56:17.264Z,932.25
2016-11-26T12:57:30.312Z,932.26
2016-11-26T13:00:28.122Z,932.26
2016-11-26T13:01:41.775Z,932.28
2016-11-26T13:02:55.417Z,932.3
2016-11-26T13:04:09.028Z,932.34
2016-11-26T13:05:22.101Z,932.34
2016-11-26T13:06:35.753Z,932.34
2016-11-26T13:07:49.360Z,932.36
2016-11-26T13:09:02.943Z,932.34
2016-11-26T13:10:16.599Z,932.32
2016-11-26T13:11:30.307Z,932.34
2016-11-26T13:12:43.396Z,932.37
2016-11-26T13:14:28.152Z,932.33
2016-11-26T13:16:12.288Z,932.33
2016-11-26T13:17:25.350Z,932.3
2016-11-26T13:18:38.905Z,932.33
2016-11-26T13:19:51.457Z,932.3
2016-11-26T13:21:05.012Z,932.34
2016-11-26T13:22:18.316Z,932.33
2016-11-26T13:23:31.462Z,932.36
2016-11-26T13:24:45.111Z,932.36
2016-11-26T13:25:58.683Z,932.36
2016-11-26T13:27:11.732Z,932.38
2016-11-26T13:28:25.263Z,932.38
2016-11-26T13:29:37.830Z,932.37
2016-11-26T13:30:49.830Z,932.36
2016-11-26T13:32:03.441Z,932.34
2016-11-26T13:33:17.081Z,932.32
2016-11-26T13:34:30.248Z,932.29
2016-11-26T13:35:43.831Z,932.27
2016-11-26T13:36:57.140Z,932.26
2016-11-26T13:38:10.729Z,932.23
2016-11-26T13:39:24.115Z,932.24
2016-11-26T13:40:37.472Z,932.26
2016-11-26T13:41:51.133Z,932.24
2016-11-26T13:43:04.217Z,932.22
2016-11-26T13:44:17.884Z,932.22
2016-11-26T13:45:31.442Z,932.17
2016-11-26T13:46:44.595Z,932.16
2016-11-26T13:47:57.712Z,932.13
2016-11-26T13:49:11.296Z,932.1
2016-11-26T13:50:23.932Z,932.1
2016-11-26T13:51:37.573Z,932.07
2016-11-26T13:52:50.656Z,932.1
2016-11-26T13:54:04.193Z,932.09
2016-11-26T13:55:17.762Z,932.06
2016-11-26T13:56:30.815Z,932.09
2016-11-26T13:57:43.958Z,932.04
2016-11-26T13:58:57.672Z,932.08
2016-11-26T14:00:10.955Z,932.11
2016-11-26T14:01:24.524Z,932.05
2016-11-26T14:02:37.097Z,932.06
2016-11-26T14:03:50.158Z,932.03
2016-11-26T14:05:03.460Z,932.03
2016-11-26T14:06:16.547Z,932.06
2016-11-26T14:07:30.312Z,932.05
2016-11-26T14:08:44.019Z,932.03
2016-11-26T14:09:57.679Z,932.02
2016-11-26T14:11:10.468Z,931.95
2016-11-26T14:12:24.106Z,931.98
2016-11-26T14:13:37.689Z,931.95
2016-11-26T14:14:51.290Z,931.94
2016-11-26T14:16:04.432Z,931.91
2016-11-26T14:17:17.739Z,931.91
2016-11-26T14:18:31.279Z,931.89
2016-11-26T14:19:44.853Z,931.85
2016-11-26T14:21:29.605Z,931.82
2016-11-26T14:22:42.645Z,931.84
2016-11-26T14:23:56.304Z,931.83
2016-11-26T14:25:09.294Z,931.8
2016-11-26T14:26:22.988Z,931.76
2016-11-26T14:27:36.539Z,931.75
2016-11-26T14:28:50.152Z,931.8
2016-11-26T14:30:03.782Z,931.8
2016-11-26T14:31:17.413Z,931.82
2016-11-26T14:32:31.065Z,931.81
2016-11-26T14:33:44.093Z,931.85
2016-11-26T14:34:57.656Z,931.81
2016-11-26T14:36:11.268Z,931.77
2016-11-26T14:37:24.935Z,931.75
2016-11-26T14:38:38.011Z,931.73
2016-11-26T14:39:51.581Z,931.72
2016-11-26T14:41:05.222Z,931.67
2016-11-26T14:42:18.869Z,931.64
2016-11-26T14:43:32.419Z,931.67
2016-11-26T14:44:46.053Z,931.65
2016-11-26T14:45:59.659Z,931.65
2016-11-26T14:47:13.247Z,931.62
2016-11-26T14:48:26.876Z,931.6
2016-11-26T14:49:40.014Z,931.59
2016-11-26T14:50:52.922Z,931.57
2016-11-26T14:52:06.571Z,931.57
2016-11-26T14:53:19.905Z,931.55
2016-11-26T14:54:33.531Z,931.62
2016-11-26T14:55:46.567Z,931.55
2016-11-26T14:57:00.343Z,931.54
2016-11-26T14:58:13.951Z,931.58
2016-11-26T14:59:27.019Z,931.62
2016-11-26T15:00:40.651Z,931.6
2016-11-26T15:01:54.200Z,931.54
2016-11-26T15:03:07.844Z,931.53
2016-11-26T15:04:21.503Z,931.5
2016-11-26T15:05:35.138Z,931.47
2016-11-26T15:06:47.673Z,931.46
2016-11-26T15:08:00.183Z,931.47
2016-11-26T15:09:13.758Z,931.42
2016-11-26T15:10:27.436Z,931.41
2016-11-26T15:11:41.059Z,931.39
2016-11-26T15:12:54.686Z,931.32
2016-11-26T15:14:07.785Z,931.31
2016-11-26T15:15:21.475Z,931.26
2016-11-26T15:16:35.111Z,931.32
2016-11-26T15:17:48.701Z,931.34
2016-11-26T15:19:02.328Z,931.31
2016-11-26T15:20:15.418Z,931.27
2016-11-26T15:21:29.209Z,931.26
2016-11-26T15:22:42.856Z,931.31
2016-11-26T15:23:56.392Z,931.27
2016-11-26T15:25:10.030Z,931.25
2016-11-26T15:26:23.636Z,931.23
2016-11-26T15:27:36.726Z,931.26
2016-11-26T15:28:50.465Z,931.21
2016-11-26T15:30:04.135Z,931.23
2016-11-26T15:31:17.171Z,931.26
2016-11-26T15:32:30.832Z,931.24
2016-11-26T15:33:44.487Z,931.2